createdAt,value
2023-04-14T00:05:09.737Z,100
2023-04-14T00:10:59.396Z,100
2023-04-14T00:16:09.680Z,100
2023-04-14T00:21:59.407Z,100
2023-04-14T00:27:09.697Z,100
2023-04-14T00:32:59.402Z,100
2023-04-14T00:38:09.679Z,100
2023-04-14T00:43:59.418Z,100
2023-04-14T00:49:09.685Z,100
2023-04-14T00:54:59.365Z,100
2023-04-14T00:59:59.398Z,100
2023-04-14T01:05:09.853Z,100
2023-04-14T01:10:09.682Z,100
2023-04-14T01:15:09.677Z,100
2023-04-14T01:20:59.381Z,100
2023-04-14T01:26:09.675Z,100
2023-04-14T01:31:59.408Z,100
2023-04-14T01:36:59.398Z,100
2023-04-14T01:41:59.390Z,100
2023-04-14T01:47:09.648Z,100
2023-04-14T01:52:09.677Z,100
2023-04-14T01:57:59.392Z,100
2023-04-14T02:03:09.718Z,100
2023-04-14T02:08:09.658Z,100
2023-04-14T02:13:59.425Z,100
2023-04-14T02:19:09.669Z,100
2023-04-14T02:24:59.358Z,100
2023-04-14T02:29:59.382Z,100
2023-04-14T02:34:59.382Z,100
2023-04-14T02:40:09.666Z,100
2023-04-14T02:45:09.678Z,100
2023-04-14T02:50:59.416Z,100
2023-04-14T02:56:09.662Z,100
2023-04-14T03:01:59.483Z,100
2023-04-14T03:07:09.658Z,100
2023-04-14T03:12:59.383Z,100
2023-04-14T03:17:59.431Z,100
2023-04-14T03:23:09.661Z,100
2023-04-14T03:28:09.671Z,100
2023-04-14T03:33:59.359Z,100
2023-04-14T03:38:59.660Z,100
2023-04-14T03:43:59.409Z,100
2023-04-14T03:48:59.603Z,100
2023-04-14T03:53:59.393Z,100
2023-04-14T03:59:10.158Z,100
2023-04-14T04:04:59.481Z,100
2023-04-14T04:10:09.687Z,100
2023-04-14T04:15:59.363Z,100
2023-04-14T04:20:59.382Z,100
2023-04-14T04:26:09.656Z,100
2023-04-14T04:31:59.480Z,100
2023-04-14T04:37:09.670Z,100
2023-04-14T04:42:59.366Z,100
2023-04-14T04:48:09.677Z,100
2023-04-14T04:53:09.667Z,100
2023-04-14T04:58:59.925Z,100
2023-04-14T05:04:09.784Z,100
2023-04-14T05:09:59.390Z,100
2023-04-14T05:15:09.700Z,100
2023-04-14T05:20:59.383Z,100
2023-04-14T05:26:31.195Z,100
2023-04-14T05:31:59.411Z,100
2023-04-14T05:37:09.681Z,100
2023-04-14T05:42:59.375Z,100
2023-04-14T05:47:59.423Z,100
2023-04-14T05:52:59.398Z,100
2023-04-14T05:58:09.692Z,100
2023-04-14T06:03:59.698Z,100
2023-04-14T06:09:09.673Z,100
2023-04-14T06:14:09.693Z,100
2023-04-14T06:19:59.401Z,100
2023-04-14T06:25:09.677Z,100
2023-04-14T06:30:59.389Z,100
2023-04-14T06:36:09.682Z,93.6
2023-04-14T06:41:59.390Z,84
2023-04-14T06:47:09.642Z,76
2023-04-14T06:52:09.678Z,73.9
2023-04-14T06:57:59.392Z,72.4
2023-04-14T07:03:09.769Z,75.2
2023-04-14T07:08:59.370Z,62.5
2023-04-14T07:13:59.597Z,62.6
2023-04-14T07:19:09.650Z,56.2
2023-04-14T07:24:09.679Z,52.4
2023-04-14T07:29:09.709Z,51
2023-04-14T07:34:59.427Z,48.5
2023-04-14T07:40:09.718Z,43.8
2023-04-14T07:45:09.686Z,40.3
2023-04-14T07:50:09.699Z,40.1
2023-04-14T07:55:59.373Z,39.4
2023-04-14T08:00:59.422Z,38.5
2023-04-14T08:06:09.686Z,37.3
2023-04-14T08:11:59.401Z,38.7
2023-04-14T08:16:59.394Z,39.2
2023-04-14T08:21:59.447Z,34.6
2023-04-14T08:27:09.703Z,35.6
2023-04-14T08:32:59.624Z,36.5
2023-04-14T08:37:59.428Z,36
2023-04-14T08:43:11.179Z,35.7
2023-04-14T08:48:09.766Z,35.3
2023-04-14T08:53:59.547Z,34.2
2023-04-14T08:58:59.454Z,30.9
2023-04-14T09:04:10.158Z,31
2023-04-14T09:09:09.718Z,31.3
2023-04-14T09:14:59.431Z,34
2023-04-14T09:20:35.684Z,33.1
2023-04-14T09:25:09.768Z,32.6
2023-04-14T09:30:09.781Z,33
2023-04-14T09:35:59.415Z,31.8
2023-04-14T09:40:59.426Z,30.3
2023-04-14T09:45:59.557Z,30.5
2023-04-14T09:51:09.747Z,31
2023-04-14T09:56:59.441Z,30.1
2023-04-14T10:01:59.567Z,30.7
2023-04-14T10:06:59.439Z,31.4
2023-04-14T10:11:59.455Z,31.9
2023-04-14T10:17:09.723Z,30.3
2023-04-14T10:22:09.749Z,32
2023-04-14T10:27:09.735Z,30.8
2023-04-14T10:32:59.486Z,32
2023-04-14T10:37:59.462Z,30.5
2023-04-14T10:43:09.738Z,30.5
2023-04-14T10:48:09.744Z,29.7
2023-04-14T10:53:59.458Z,27.7
2023-04-14T10:59:09.770Z,30.9
2023-04-14T11:04:59.451Z,31.9
2023-04-14T11:10:09.746Z,32.2
2023-04-14T11:15:59.498Z,33.5
2023-04-14T11:21:09.772Z,33.8
2023-04-14T11:26:59.459Z,37
2023-04-14T11:31:59.510Z,35.1
2023-04-14T11:36:59.475Z,32.8
2023-04-14T11:41:59.482Z,31.7
2023-04-14T11:46:59.490Z,33.6
2023-04-14T11:52:09.738Z,35.6
2023-04-14T11:57:59.605Z,33.4
2023-04-14T12:02:59.784Z,33.2
2023-04-14T12:08:12.299Z,33.4
2023-04-14T12:13:59.488Z,35.7
2023-04-14T12:19:09.732Z,33.4
2023-04-14T12:24:09.770Z,31.3
2023-04-14T12:29:59.484Z,30.9
2023-04-14T12:35:09.772Z,32
2023-04-14T12:41:09.750Z,30.6
2023-04-14T12:46:09.793Z,29.3
2023-04-14T12:51:59.463Z,30.4
2023-04-14T12:56:59.527Z,28.6
2023-04-14T13:02:09.814Z,30
2023-04-14T13:08:09.775Z,33.1
2023-04-14T13:13:09.813Z,32.3
2023-04-14T13:18:59.810Z,31.3
2023-04-14T13:24:09.792Z,30.8
2023-04-14T13:29:09.772Z,29.1
2023-04-14T13:34:59.495Z,29.7
2023-04-14T13:40:09.783Z,30.1
2023-04-14T13:45:59.520Z,32.5
2023-04-14T13:51:09.830Z,31.2
2023-04-14T13:56:59.513Z,30
2023-04-14T14:02:09.850Z,29.6
2023-04-14T14:07:09.794Z,30.6
2023-04-14T14:12:09.786Z,30.2
2023-04-14T14:17:59.524Z,29.8
2023-04-14T14:22:59.526Z,29.1
2023-04-14T14:28:09.775Z,30.8
2023-04-14T14:33:09.810Z,29.9
2023-04-14T14:38:09.814Z,30
2023-04-14T14:44:00.864Z,30.7
2023-04-14T14:49:09.802Z,28.8
2023-04-14T14:54:59.494Z,29.9
2023-04-14T15:00:09.743Z,31.2
2023-04-14T15:05:09.758Z,33.4
2023-04-14T15:10:59.453Z,28.6
2023-04-14T15:15:59.514Z,29.1
2023-04-14T15:20:59.545Z,28.2
2023-04-14T15:25:59.553Z,28.6
2023-04-14T15:31:09.811Z,29
2023-04-14T15:36:59.557Z,28.3
2023-04-14T15:42:09.820Z,31.5
2023-04-14T15:47:09.834Z,32.2
2023-04-14T15:52:59.551Z,31.1
2023-04-14T15:58:09.831Z,31
2023-04-14T16:03:09.932Z,30.7
2023-04-14T16:08:09.834Z,31.3
2023-04-14T16:13:09.844Z,31.2
2023-04-14T16:18:59.700Z,32.4
2023-04-14T16:23:59.745Z,32.4
2023-04-14T16:29:09.836Z,32.2
2023-04-14T16:34:59.587Z,33.8
2023-04-14T16:40:09.826Z,35.1
2023-04-14T16:45:09.842Z,34.6
2023-04-14T16:50:09.859Z,34.9
2023-04-14T16:55:59.520Z,36.6
2023-04-14T17:00:59.536Z,35.6
2023-04-14T17:10:59.542Z,35.4
2023-04-14T17:16:09.920Z,35
2023-04-14T17:21:59.537Z,36.3
2023-04-14T17:27:09.836Z,37.2
2023-04-14T17:32:10.026Z,37
2023-04-14T17:37:59.521Z,37.9
2023-04-14T17:42:59.551Z,37.1
2023-04-14T17:48:09.876Z,37.9
2023-04-14T17:53:09.843Z,36.3
2023-04-14T17:58:59.539Z,36.7
2023-04-14T18:04:09.895Z,37.5
2023-04-14T18:09:59.560Z,37.1
2023-04-14T18:15:09.838Z,38.7
2023-04-14T18:20:09.854Z,40
2023-04-14T18:30:59.623Z,40.4
2023-04-14T18:41:59.578Z,42.6
2023-04-14T18:47:09.841Z,44.3
2023-04-14T18:52:59.560Z,46.5
2023-04-14T18:57:59.564Z,47.3
2023-04-14T19:03:09.872Z,46
2023-04-14T19:08:59.887Z,48.1
2023-04-14T19:14:09.843Z,48.8
2023-04-14T19:19:09.851Z,50.2
2023-04-14T19:24:09.874Z,48.4
2023-04-14T19:29:59.599Z,48.7
2023-04-14T19:35:09.848Z,51.2
2023-04-14T19:40:59.573Z,52.5
2023-04-14T19:46:09.868Z,54.3
2023-04-14T19:51:09.893Z,54.8
2023-04-14T19:56:59.572Z,53.6
2023-04-14T20:02:09.882Z,52
2023-04-14T20:07:09.835Z,51.2
2023-04-14T20:12:59.578Z,52.9
2023-04-14T20:18:09.834Z,52.8
2023-04-14T20:23:59.558Z,52.6
2023-04-14T20:29:09.842Z,52.7
2023-04-14T20:34:59.543Z,53.2
2023-04-14T20:39:59.567Z,60.9
2023-04-14T20:44:59.616Z,60
2023-04-14T20:50:09.859Z,56.5
2023-04-14T20:55:59.577Z,55.5
2023-04-14T21:00:59.606Z,57.7
2023-04-14T21:06:09.855Z,59
2023-04-14T21:11:18.289Z,60.6
2023-04-14T21:16:59.697Z,63.1
2023-04-14T21:21:59.608Z,65.5
2023-04-14T21:27:09.839Z,67.4
2023-04-14T21:32:09.866Z,66.8
2023-04-14T21:37:09.865Z,67.1
2023-04-14T21:42:59.611Z,67
2023-04-14T21:48:09.876Z,67.1
2023-04-14T21:53:59.644Z,67.7
2023-04-14T21:59:09.838Z,67.8
2023-04-14T22:04:12.780Z,70.2
2023-04-14T22:09:59.617Z,71
2023-04-14T22:15:09.865Z,70.5
2023-04-14T22:20:59.557Z,74.8
2023-04-14T22:26:09.880Z,73.7
2023-04-14T22:31:59.566Z,76.7
2023-04-14T22:36:59.586Z,80
2023-04-14T22:41:59.577Z,78.1
2023-04-14T22:47:09.887Z,78.9
2023-04-14T22:52:59.568Z,78.1
2023-04-14T22:58:09.861Z,80.6
2023-04-14T23:03:59.651Z,81.5
2023-04-14T23:09:09.848Z,79.6
2023-04-14T23:14:59.572Z,78.5
2023-04-14T23:19:59.555Z,80.9
2023-04-14T23:25:09.861Z,80.4
2023-04-14T23:30:09.877Z,80.7
2023-04-14T23:35:59.553Z,79.5
2023-04-14T23:40:59.550Z,81
2023-04-14T23:45:59.592Z,82.4
2023-04-14T23:51:06.929Z,85
2023-04-14T23:56:09.861Z,83.4
